NCAR-RAP Real-Time Weather Data

Output produced by METARs form (08 May 2021  17:25 UTC)
found at http://weather.rap.ucar.edu/surface/
 
KDMO 081653Z AUTO 11018KT 10SM OVC100 18/11 A2990 RMK AO2 SLP121 T01830111
KDMO 081553Z AUTO 10013KT 10SM OVC100 17/10 A2993 RMK AO2 SLP133 T01720100
KDMO 081453Z AUTO 10017G25KT 10SM FEW110 16/08 A2996 RMK AO2 SLP142 60000 T01560083 58013
KDMO 081353Z AUTO 08009KT 10SM CLR 13/08 A2996 RMK AO2 RAB13E24 SLP145 P0000 T01330083
KDMO 081328Z AUTO 11010G21KT 10SM FEW027 SCT080 13/09 A2994 RMK AO2 RAB13E24 P0000 T01280089
KDMO 081253Z AUTO 05006KT 10SM OVC029 13/10 A3000 RMK AO2 RAB10E31 SLP155 P0000 T01280100
KDMO 081153Z AUTO 10007KT 10SM SCT100 13/09 A2996 RMK AO2 RAB07E27 SLP142 P0001 60001 70001 T01280089 10144 20128 58009
KDMO 081053Z AUTO 13005KT 10SM OVC075 13/08 A3000 RMK AO2 RAB40E50 SLP155 P0000 T01330083
KDMO 080953Z AUTO 11004KT 10SM OVC080 14/07 A2999 RMK AO2 SLP153 T01390072
KDMO 080853Z AUTO 10006KT 10SM FEW065 OVC080 14/07 A2999 RMK AO2 SLP150 T01390067 56017
KDMO 080753Z AUTO 09005KT 10SM OVC080 14/07 A2999 RMK AO2 SLP152 T01390072
KDMO 080653Z AUTO 16003KT 10SM SCT070 OVC100 13/08 A3002 RMK AO2 SLP163 T01330078
KDMO 080553Z AUTO 11003KT 10SM BKN075 OVC100 14/09 A3004 RMK AO2 SLP168 T01390089 10189 20139 402280072 58001
KDMO 080453Z AUTO 00000KT 10SM OVC075 15/09 A3005 RMK AO2 SLP171 T01500089
KDMO 080353Z AUTO 00000KT 10SM OVC075 16/06 A3004 RMK AO2 SLP168 T01610056
KDMO 080253Z AUTO 23003KT 10SM OVC070 16/05 A3004 RMK AO2 SLP170 T01610050 53005